Pagrindinis puslapis
METAR-TAF:

METAR-TAF

Oro uostai :

Rijadas, Saudo Arabija

platuma: 24-43N, ilguma: 046-44E, Aukštis: 635 m

Dabartinis oras

Ataskaita buvo paskelbta 27 minutes, ne 11:00 UTC
Vėjas 6 kt iš Rytų
Temperatūra 42°C
Drėgmė 6%
Slėgis 1010 hPa
Matomumas 10 km arba daugiau
nėra debesų žemiau 1500 m ir nėra kamuolinių lietaus debesų

METAR: OERY 311100Z 10006KT CAVOK 42/M03 Q1010

Laikas: 14:27 (11:27 UTC)

Prognozė

Ataskaita buvo paskelbta 12 valandos ir 27 minutes, ne 23:00 UTC
Prognozė galioja nuo 31 metu 00 UTC su 01 metu 06 UTC
Vėjas 3 kt nuo kintamojo kryptimis
Matomumas 10 km arba daugiau
nėra debesų žemiau 1500 m ir nėra kamuolinių lietaus debesų
Tapsmas
nuo 31 metu 06 UTC su 31 metu 08 UTC
Vėjas 13 kt iš Rytų

TAF: OERY 302300Z 3100/0106 VRB03KT CAVOK BECMG 3106/3108 08013KT

Orai ataskaitas ir orų prognozės (METAR, TAF).

turimą stotys yra geltonos ir raudonos taškus žemėlapyje.

Perkelti pele per norėdami pamatyti stoties vardą.

Tada spustelėkite, norėdami matyti oro stebėjimo ir prognozės.

Norėdami pakeisti žemėlapį: spustelėkite ant žalios mygtukų su juodo kryžiaus žemyn,; žalią mygtuką su brūkšneliu, jei norite nutolinti; arba žalių rodyklių gretimoms žemėlapius.


METAR-TAF: